Normanna, TX (78142)

3:41 PM CDT on September 30, 2016 (GMT -0500)
Barbed KC Ranch | | Change Station

Elev 325 ft 28.57 °N, 97.77 °W | Updated 3 seconds ago

Clear
Clear
81.3 °F
Feels Like 80 °F
N
1.3
Wind Variable Wind from South
Gusts 2.5 mph

Today
High -- | Low -- °F
--% Chance of Precip.
Yesterday
High -- | Low -- °F
Precip. -- in
Pressure 30.09 in
Visibility 10.0 miles
Clouds Clear
Heat Index 80 °F
Dew Point 48 °F
Humidity 31%
Rainfall 0.00 in
Snow Depth Not available.
7:23 AM 7:17 PM
Waning Crescent, 0% visible
METAR KBEA 302035Z AUTO 00000KT 10SM CLR 28/11 A3009 RMK AO2 T02770114
Pressure 30.09 in
Visibility 10.0 miles
Clouds Clear
Heat Index 80 °F
Dew Point 48 °F
Humidity 31%
Rainfall 0.00 in
Snow Depth Not available.
7:23 AM 7:17 PM
Waning Crescent, 0% visible
METAR KBEA 302035Z AUTO 00000KT 10SM CLR 28/11 A3009 RMK AO2 T02770114

10-Day Weather Forecast

Almanac

Astronomy

Sep. 30, 2016 Rise Set
Actual Time
Civil Twilight
Nautical Twilight
Astronomical Twilight
Moon
Length of Visible Light
Length of Day
Tomorrow will be .
, % of the Moon is Illuminated

Today's Extremes

State Highs State Lows

Community

WunderPhotos

Upload Photos

1,942,766 photos uploaded!

WunderBlog® & News

Nearby

Air Quality

  Air Quality AQ Index Pollutant
Not available.

Snow Depth

Station Depth Elevation

Earthquake Activity

City Distance Mag. Time & Date
Minimum magnitude displayed is 2.5.

Coastal Water Temperatures

Place Temperature

Stations

Nearby Weather Stations

Station Location Temp. Windchill Dew Point Humidity Wind Precip. Elev Updated Type
                   

Watches & Warnings

There are currently no watches in effect.